Time;durP1;ratioP1;P1;durP2;ratioP2;P2;SDS_P1;SDS_P2;PMS_P1;PMS_P2;Temp;Humidity;BMP_temperature;BMP_pressure;BME280_temperature;BME280_humidity;BME280_pressure;Samples;Min_cycle;Max_cycle;Signal;HPM_P1;HPM_P2
2023/08/15 00:08:55;;;;;;;7.97;2.00;;;19.10;1.00;;;;;;20683636;28;20038;-41
2023/08/15 00:18:56;;;;;;;4.35;2.08;;;18.90;1.00;;;;;;20675407;28;20088;-41
2023/08/15 00:28:58;;;;;;;5.35;2.13;;;18.80;1.00;;;;;;20669278;28;20322;-42
2023/08/15 00:39:02;;;;;;;7.10;2.22;;;18.80;1.00;;;;;;20673322;28;20499;-41
2023/08/15 00:49:05;;;;;;;6.25;2.20;;;18.70;1.00;;;;;;20673612;28;20149;-41
2023/08/15 00:59:06;;;;;;;7.55;2.30;;;18.80;1.00;;;;;;20666552;28;20044;-41
2023/08/15 01:09:08;;;;;;;5.80;2.20;;;18.80;1.00;;;;;;20667264;28;20038;-42
2023/08/15 01:19:35;;;;;;;6.97;2.15;;;18.70;1.00;;;;;;20658642;28;20755;-42
2023/08/15 01:29:35;;;;;;;7.50;1.98;;;18.70;1.00;;;;;;20640404;28;20050;-41
2023/08/15 01:39:38;;;;;;;5.57;2.20;;;18.70;1.00;;;;;;20666138;28;20045;-41
2023/08/15 01:49:38;;;;;;;5.35;2.45;;;18.70;1.00;;;;;;20669528;28;20209;-41
2023/08/15 01:59:39;;;;;;;6.07;2.63;;;18.60;1.00;;;;;;20664692;28;20049;-41
2023/08/15 02:09:39;;;;;;;6.80;2.15;;;18.40;1.00;;;;;;20660837;28;20069;-41
2023/08/15 02:19:41;;;;;;;5.88;2.45;;;18.30;1.00;;;;;;20668037;28;20068;-41
2023/08/15 02:29:42;;;;;;;8.02;2.38;;;18.20;1.00;;;;;;20660780;28;20049;-41
2023/08/15 02:39:42;;;;;;;4.63;2.05;;;18.20;1.00;;;;;;20664474;28;20045;-41
2023/08/15 02:49:43;;;;;;;9.02;3.22;;;18.10;1.00;;;;;;20657630;28;20046;-42
2023/08/15 02:59:43;;;;;;;6.03;2.80;;;18.10;1.00;;;;;;20662519;28;20042;-41
2023/08/15 03:09:44;;;;;;;7.47;3.28;;;18.10;1.00;;;;;;20650251;28;20385;-41
2023/08/15 03:19:45;;;;;;;9.68;4.05;;;18.20;1.00;;;;;;20667945;28;21060;-41
2023/08/15 03:29:45;;;;;;;7.07;3.83;;;18.30;1.00;;;;;;20668895;28;20053;-42
2023/08/15 03:39:46;;;;;;;9.52;3.92;;;18.20;1.00;;;;;;20668251;28;20054;-41
2023/08/15 03:49:46;;;;;;;11.50;4.53;;;18.10;1.00;;;;;;20674968;28;20046;-41
2023/08/15 03:59:47;;;;;;;8.80;4.10;;;18.00;1.00;;;;;;20676777;28;20037;-41
2023/08/15 04:09:47;;;;;;;11.95;5.18;;;17.90;6.80;;;;;;20674680;28;20124;-42
2023/08/15 04:19:48;;;;;;;7.20;3.72;;;17.70;13.10;;;;;;20676188;28;20566;-41
2023/08/15 04:29:48;;;;;;;11.32;5.75;;;17.60;24.10;;;;;;20675423;28;20074;-42
2023/08/15 04:39:49;;;;;;;12.38;4.88;;;17.70;70.90;;;;;;20676544;28;20053;-42
2023/08/15 04:49:49;;;;;;;9.75;4.60;;;17.60;99.90;;;;;;20680006;28;20057;-42
2023/08/15 04:59:50;;;;;;;11.65;4.93;;;17.50;99.90;;;;;;20671396;28;20480;-42
2023/08/15 05:09:50;;;;;;;8.25;4.32;;;17.50;99.90;;;;;;20676142;28;20045;-42
2023/08/15 05:19:51;;;;;;;11.10;4.90;;;17.50;99.90;;;;;;20670098;28;20550;-41
2023/08/15 05:29:52;;;;;;;12.15;5.13;;;17.60;99.90;;;;;;20682378;28;20575;-42
2023/08/15 05:39:52;;;;;;;11.93;4.32;;;17.60;99.90;;;;;;20676747;28;20052;-42
2023/08/15 05:49:53;;;;;;;10.32;4.57;;;18.00;99.90;;;;;;20687745;28;20501;-42
2023/08/15 05:59:53;;;;;;;9.50;4.10;;;18.30;99.90;;;;;;20672114;28;20041;-41
2023/08/15 06:09:54;;;;;;;10.35;4.47;;;18.80;99.90;;;;;;20673402;28;20038;-41
2023/08/15 06:19:54;;;;;;;8.10;4.17;;;19.40;69.70;;;;;;20657531;28;20038;-42
2023/08/15 06:29:55;;;;;;;8.45;3.38;;;19.20;58.60;;;;;;20666738;28;20049;-41
2023/08/15 06:39:55;;;;;;;18.27;4.67;;;19.10;56.70;;;;;;20681451;28;20048;-41
2023/08/15 06:49:56;;;;;;;10.15;4.00;;;19.10;73.10;;;;;;20672387;28;20669;-42
2023/08/15 06:59:57;;;;;;;11.00;3.90;;;19.20;59.00;;;;;;20678326;28;20047;-42
2023/08/15 07:09:57;;;;;;;11.77;4.50;;;19.30;52.30;;;;;;20695840;28;20043;-41
2023/08/15 07:19:58;;;;;;;11.73;4.40;;;19.40;46.40;;;;;;20695854;28;20468;-41
2023/08/15 07:29:59;;;;;;;9.77;5.20;;;19.40;48.00;;;;;;20694655;28;20041;-41
2023/08/15 07:40:09;;;;;;;14.63;6.38;;;19.70;33.90;;;;;;20695577;28;20030;-41
2023/08/15 07:50:26;;;;;;;12.40;7.22;;;20.20;1.00;;;;;;20691796;28;20108;-41
2023/08/15 08:00:27;;;;;;;10.32;6.43;;;20.10;1.00;;;;;;20697587;28;20501;-40
2023/08/15 08:10:27;;;;;;;9.05;6.50;;;20.00;1.00;;;;;;20689397;28;20049;-41
2023/08/15 08:20:29;;;;;;;9.93;6.53;;;20.30;1.00;;;;;;20688413;28;20129;-41
2023/08/15 08:30:29;;;;;;;10.65;6.47;;;20.80;1.00;;;;;;20701257;28;20464;-41
2023/08/15 08:40:30;;;;;;;11.70;6.20;;;20.90;1.00;;;;;;20689561;28;20053;-41
2023/08/15 08:50:32;;;;;;;9.80;6.87;;;20.90;1.00;;;;;;20694808;28;20060;-42
2023/08/15 09:00:34;;;;;;;8.85;6.20;;;20.90;1.00;;;;;;20691553;28;20034;-41
2023/08/15 09:10:34;;;;;;;10.15;5.22;;;21.30;1.00;;;;;;20694992;28;20345;-41
2023/08/15 09:20:45;;;;;;;9.95;5.97;;;21.50;1.00;;;;;;20685608;28;20037;-41
2023/08/15 09:30:52;;;;;;;10.60;7.13;;;21.30;1.00;;;;;;20702604;28;20125;-41
2023/08/15 09:40:53;;;;;;;12.63;7.60;;;21.00;1.00;;;;;;20692706;28;20065;-41
2023/08/15 09:50:55;;;;;;;9.15;6.55;;;20.70;1.00;;;;;;20688230;28;20046;-41
2023/08/15 10:00:56;;;;;;;9.80;5.60;;;20.80;1.00;;;;;;20686952;28;20046;-41
2023/08/15 10:10:58;;;;;;;7.13;5.50;;;20.90;1.00;;;;;;20716240;28;20041;-41
2023/08/15 10:21:00;;;;;;;10.73;8.25;;;20.60;1.00;;;;;;20730822;28;20053;-41
2023/08/15 10:31:01;;;;;;;10.50;6.75;;;21.00;1.00;;;;;;20716261;28;20100;-41
2023/08/15 10:41:03;;;;;;;13.77;8.50;;;21.00;1.00;;;;;;20716094;28;20057;-41
2023/08/15 10:51:05;;;;;;;10.77;8.70;;;20.50;1.00;;;;;;20692988;28;20472;-41
2023/08/15 11:01:06;;;;;;;11.95;8.45;;;20.70;3.40;;;;;;20701078;28;20034;-41
2023/08/15 11:11:08;;;;;;;7.70;4.93;;;21.50;8.90;;;;;;20698432;28;20054;-41
2023/08/15 11:21:11;;;;;;;6.93;3.40;;;22.20;1.00;;;;;;20700747;28;20148;-41
2023/08/15 11:31:16;;;;;;;3.10;1.98;;;21.70;1.00;;;;;;20712930;28;20147;-41
2023/08/15 11:41:16;;;;;;;3.03;2.33;;;21.30;1.00;;;;;;20697361;28;20045;-41
2023/08/15 11:51:20;;;;;;;3.00;1.60;;;21.70;1.00;;;;;;20693748;28;20046;-41
2023/08/15 12:01:25;;;;;;;2.75;1.60;;;22.30;1.00;;;;;;20670803;28;20045;-41
2023/08/15 12:11:25;;;;;;;3.97;2.60;;;22.60;1.00;;;;;;20696430;28;20078;-41
2023/08/15 12:21:26;;;;;;;2.55;1.40;;;22.40;1.00;;;;;;20708455;28;20042;-42
2023/08/15 12:31:26;;;;;;;4.38;1.38;;;22.30;1.00;;;;;;20690800;28;20506;-41
2023/08/15 12:41:27;;;;;;;3.60;1.77;;;21.80;1.00;;;;;;20700576;28;20046;-42
2023/08/15 12:51:28;;;;;;;2.83;1.80;;;22.00;1.00;;;;;;20697957;28;20057;-41
2023/08/15 13:01:29;;;;;;;6.82;2.28;;;22.50;1.00;;;;;;20688946;28;20048;-42
2023/08/15 13:11:29;;;;;;;5.53;1.85;;;23.10;1.00;;;;;;20693603;28;20049;-42
2023/08/15 13:21:30;;;;;;;2.57;1.30;;;23.80;1.00;;;;;;20694445;28;20038;-42
2023/08/15 13:31:31;;;;;;;2.90;1.27;;;24.00;1.00;;;;;;20694343;28;20224;-42
2023/08/15 13:41:31;;;;;;;4.47;1.53;;;23.90;1.00;;;;;;20697209;28;20379;-42
2023/08/15 13:51:32;;;;;;;3.80;1.47;;;24.70;1.00;;;;;;20690928;28;20085;-42
2023/08/15 14:01:33;;;;;;;2.63;1.00;;;25.00;1.00;;;;;;20695836;28;20498;-42
2023/08/15 14:11:33;;;;;;;2.25;1.00;;;25.10;1.00;;;;;;20701434;28;20064;-42
2023/08/15 14:21:34;;;;;;;3.60;1.58;;;25.10;1.00;;;;;;20716623;28;20078;-42
2023/08/15 14:31:34;;;;;;;5.35;1.30;;;25.20;1.00;;;;;;20717758;28;20485;-42
2023/08/15 14:41:35;;;;;;;4.85;1.08;;;24.90;1.00;;;;;;20690429;28;20104;-42
2023/08/15 14:51:36;;;;;;;3.95;1.20;;;24.60;1.00;;;;;;20688245;28;20038;-42
2023/08/15 15:01:36;;;;;;;5.30;1.20;;;24.40;1.00;;;;;;20697806;28;20528;-42
2023/08/15 15:11:37;;;;;;;3.63;1.10;;;24.00;1.00;;;;;;20688514;28;20081;-42
2023/08/15 15:21:37;;;;;;;7.35;1.65;;;24.10;1.00;;;;;;20695639;28;20048;-42
2023/08/15 15:31:38;;;;;;;3.03;1.40;;;24.10;1.00;;;;;;20704074;28;20046;-42
2023/08/15 15:41:38;;;;;;;5.03;1.70;;;23.90;1.00;;;;;;20700972;28;20034;-42
2023/08/15 15:51:39;;;;;;;3.88;1.73;;;23.50;1.00;;;;;;20722291;28;20046;-40
2023/08/15 16:01:40;;;;;;;4.15;1.40;;;23.50;1.00;;;;;;20729114;28;20037;-40
2023/08/15 16:11:41;;;;;;;3.65;1.00;;;23.20;1.00;;;;;;20667655;28;20308;-40
2023/08/15 16:21:41;;;;;;;2.53;0.80;;;22.90;1.00;;;;;;20709027;28;20045;-40
2023/08/15 16:31:42;;;;;;;4.03;1.00;;;22.60;1.00;;;;;;20718694;28;20042;-40
2023/08/15 16:41:42;;;;;;;4.72;1.10;;;22.40;1.00;;;;;;20692384;28;20049;-40
2023/08/15 16:51:43;;;;;;;2.65;1.20;;;22.10;1.00;;;;;;20682721;28;20506;-40
2023/08/15 17:01:43;;;;;;;3.85;1.48;;;21.70;1.00;;;;;;20681846;28;20037;-40
2023/08/15 17:11:44;;;;;;;5.85;1.80;;;21.60;1.00;;;;;;20679023;28;20152;-40
2023/08/15 17:21:44;;;;;;;5.32;1.40;;;21.40;1.00;;;;;;20630651;28;20509;-40
2023/08/15 17:31:45;;;;;;;2.72;0.93;;;21.30;1.00;;;;;;20671887;28;20045;-40
2023/08/15 17:41:45;;;;;;;4.82;1.33;;;21.10;1.00;;;;;;20662708;28;20046;-40
2023/08/15 17:51:46;;;;;;;2.35;1.08;;;21.00;1.00;;;;;;20656950;28;20049;-40
2023/08/15 18:01:47;;;;;;;5.75;1.77;;;20.70;1.00;;;;;;20620831;28;20268;-40
2023/08/15 18:11:47;;;;;;;5.05;2.17;;;20.50;1.00;;;;;;20658084;28;20041;-40
2023/08/15 18:21:49;;;;;;;5.40;2.75;;;20.50;1.00;;;;;;20668116;28;20473;-43
2023/08/15 18:31:50;;;;;;;5.43;3.03;;;20.20;1.00;;;;;;20673075;28;20042;-41
2023/08/15 18:41:51;;;;;;;4.28;1.63;;;19.90;1.00;;;;;;20656765;28;20402;-41
2023/08/15 18:51:52;;;;;;;3.80;1.50;;;19.80;1.00;;;;;;20651885;28;20049;-41
2023/08/15 19:01:52;;;;;;;3.95;1.45;;;19.50;1.00;;;;;;20685161;28;20619;-41
2023/08/15 19:11:53;;;;;;;3.95;1.40;;;19.20;1.00;;;;;;20693871;28;20061;-41
2023/08/15 19:21:53;;;;;;;3.03;1.60;;;19.00;1.00;;;;;;20698604;28;20034;-41
2023/08/15 19:31:54;;;;;;;2.40;1.35;;;18.70;1.00;;;;;;20690014;28;20445;-41
2023/08/15 19:41:54;;;;;;;4.50;1.38;;;18.40;1.00;;;;;;20666235;28;20098;-41
2023/08/15 19:51:56;;;;;;;5.20;1.60;;;18.20;1.00;;;;;;20671009;28;20042;-41
2023/08/15 20:01:56;;;;;;;6.72;2.15;;;18.00;1.00;;;;;;20670810;28;20033;-41
2023/08/15 20:11:57;;;;;;;4.55;1.80;;;17.80;1.00;;;;;;20663481;28;20050;-41
2023/08/15 20:21:58;;;;;;;4.87;1.90;;;17.50;1.00;;;;;;20674375;28;20105;-41
2023/08/15 20:31:59;;;;;;;3.70;2.20;;;17.30;1.00;;;;;;20674050;28;21007;-41
2023/08/15 20:42:00;;;;;;;4.80;2.38;;;17.30;1.00;;;;;;20671566;28;20079;-41
2023/08/15 20:52:03;;;;;;;2.60;1.70;;;17.10;1.00;;;;;;20659081;28;20052;-41
2023/08/15 21:02:05;;;;;;;4.55;2.00;;;17.10;1.00;;;;;;20656920;28;20237;-41
2023/08/15 21:12:06;;;;;;;3.42;1.92;;;16.90;1.00;;;;;;20672239;28;20130;-41
2023/08/15 21:22:06;;;;;;;4.93;2.47;;;16.90;1.00;;;;;;20684226;28;20045;-41
2023/08/15 21:32:08;;;;;;;3.40;2.10;;;16.70;1.00;;;;;;20685478;28;20054;-41
2023/08/15 21:42:08;;;;;;;3.83;2.13;;;16.60;1.00;;;;;;20693474;28;20038;-41
2023/08/15 21:52:09;;;;;;;4.65;2.67;;;16.50;9.30;;;;;;20671750;28;20045;-41
2023/08/15 22:02:09;;;;;;;4.30;2.70;;;16.30;8.00;;;;;;20672387;28;20145;-41
2023/08/15 22:12:10;;;;;;;5.50;2.90;;;16.30;15.00;;;;;;20675240;28;20497;-41
2023/08/15 22:22:11;;;;;;;4.47;2.85;;;16.20;16.60;;;;;;20669374;28;20042;-41
2023/08/15 22:32:11;;;;;;;6.20;3.10;;;16.10;22.70;;;;;;20684382;28;20088;-41
2023/08/15 22:42:12;;;;;;;6.57;3.53;;;16.00;21.60;;;;;;20702191;28;20555;-41
2023/08/15 22:52:12;;;;;;;5.57;3.75;;;15.90;22.60;;;;;;20701671;28;20046;-41
2023/08/15 23:02:13;;;;;;;6.95;4.25;;;15.90;27.40;;;;;;20698774;28;20080;-41
2023/08/15 23:12:13;;;;;;;6.25;3.72;;;15.70;29.60;;;;;;20694273;28;20050;-40
2023/08/15 23:22:14;;;;;;;5.72;4.30;;;15.70;25.70;;;;;;20701492;28;20040;-40
2023/08/15 23:32:15;;;;;;;5.60;3.75;;;15.50;36.30;;;;;;20703597;28;21387;-41
2023/08/15 23:42:15;;;;;;;5.97;3.28;;;15.60;34.30;;;;;;20687658;28;20077;-40
2023/08/15 23:52:16;;;;;;;6.22;3.83;;;15.60;50.60;;;;;;20687863;28;20053;-41
